createdAt,value
2023-01-17T00:01:54.597Z,11.85
2023-01-17T00:04:59.960Z,11.40
2023-01-17T00:08:04.347Z,11.80
2023-01-17T00:10:50.240Z,14.25
2023-01-17T00:13:35.868Z,15.93
2023-01-17T00:16:21.625Z,12.18
2023-01-17T00:19:25.907Z,12.60
2023-01-17T00:22:38.934Z,12.63
2023-01-17T00:25:50.939Z,12.35
2023-01-17T00:28:41.177Z,12.70
2023-01-17T00:31:27.260Z,12.10
2023-01-17T00:34:12.904Z,10.10
2023-01-17T00:36:58.723Z,11.05
2023-01-17T00:39:44.519Z,12.05
2023-01-17T00:42:30.644Z,12.35
2023-01-17T00:45:35.108Z,12.50
2023-01-17T00:48:39.574Z,10.30
2023-01-17T00:51:45.174Z,11.57
2023-01-17T00:54:49.344Z,12.05
2023-01-17T01:00:58.945Z,10.55
2023-01-17T01:04:03.388Z,9.38
2023-01-17T01:07:07.872Z,7.07
2023-01-17T01:10:12.132Z,6.97
2023-01-17T01:13:16.282Z,6.00
2023-01-17T01:16:23.385Z,6.70
2023-01-17T01:19:27.739Z,6.50
2023-01-17T01:22:32.189Z,7.50
2023-01-17T01:25:36.772Z,5.35
2023-01-17T01:28:41.527Z,6.72
2023-01-17T01:31:46.065Z,7.13
2023-01-17T01:34:32.180Z,7.03
2023-01-17T01:37:17.778Z,6.85
2023-01-17T01:40:03.931Z,6.82
2023-01-17T01:42:58.498Z,7.95
2023-01-17T01:45:48.394Z,6.55
2023-01-17T01:48:37.125Z,6.40
2023-01-17T01:51:26.769Z,6.57
2023-01-17T01:54:17.239Z,7.35
2023-01-17T01:57:05.793Z,6.78
2023-01-17T01:59:57.460Z,7.93
2023-01-17T02:02:44.417Z,7.75
2023-01-17T02:05:30.574Z,7.65
2023-01-17T02:08:22.099Z,6.25
2023-01-17T02:11:08.174Z,6.35
2023-01-17T02:15:07.474Z,5.45
2023-01-17T02:18:51.592Z,4.47
2023-01-17T02:21:57.751Z,3.83
2023-01-17T02:25:03.830Z,3.85
2023-01-17T02:28:32.863Z,3.17
2023-01-17T02:32:01.273Z,2.17
2023-01-17T02:35:15.725Z,1.65
2023-01-17T02:38:31.698Z,2.40
2023-01-17T02:41:36.852Z,3.53
2023-01-17T02:44:24.045Z,6.65
2023-01-17T02:47:23.566Z,17.73
2023-01-17T02:51:41.653Z,15.65
2023-01-17T02:54:47.348Z,9.90
2023-01-17T02:58:13.313Z,7.65
2023-01-17T03:02:07.258Z,6.88
2023-01-17T03:05:00.926Z,5.57
2023-01-17T03:07:48.407Z,6.15
2023-01-17T03:10:35.460Z,6.00
2023-01-17T03:13:22.738Z,4.60
2023-01-17T03:16:14.508Z,4.55
2023-01-17T03:19:01.037Z,3.55
2023-01-17T03:21:46.629Z,4.00
2023-01-17T03:24:32.363Z,4.53
2023-01-17T03:27:18.175Z,4.47
2023-01-17T03:30:04.647Z,4.40
2023-01-17T03:32:50.514Z,6.70
2023-01-17T03:36:01.339Z,8.75
2023-01-17T03:38:47.195Z,8.55
2023-01-17T03:42:08.188Z,8.23
2023-01-17T03:44:53.920Z,6.95
2023-01-17T03:47:39.565Z,5.35
2023-01-17T03:50:25.491Z,5.18
2023-01-17T03:53:26.836Z,4.00
2023-01-17T03:56:13.355Z,5.43
2023-01-17T03:59:00.185Z,3.35
2023-01-17T04:01:48.077Z,3.67
2023-01-17T04:04:34.213Z,5.80
2023-01-17T04:07:20.587Z,4.75
2023-01-17T04:10:06.941Z,4.63
2023-01-17T04:12:52.835Z,4.72
2023-01-17T04:16:49.583Z,3.58
2023-01-17T04:19:36.502Z,4.70
2023-01-17T04:22:22.479Z,2.90
2023-01-17T04:25:31.032Z,2.97
2023-01-17T04:29:01.933Z,2.60
2023-01-17T04:31:48.741Z,2.20
2023-01-17T04:34:34.769Z,2.50
2023-01-17T05:19:55.571Z,9.48
2023-01-17T05:31:53.830Z,7.07
2023-01-17T05:34:39.567Z,10.30
2023-01-17T05:43:20.322Z,12.02
2023-01-17T05:46:08.250Z,12.52
2023-01-17T05:48:54.763Z,14.25
2023-01-17T05:51:40.766Z,10.63
2023-01-17T05:54:26.506Z,12.60
2023-01-17T06:03:11.563Z,9.20
2023-01-17T06:05:57.467Z,8.68
2023-01-17T06:08:43.788Z,8.15
2023-01-17T06:16:13.346Z,5.32
2023-01-17T06:18:59.098Z,3.65
2023-01-17T06:21:44.730Z,4.03
2023-01-17T06:24:30.636Z,6.32
2023-01-17T06:27:16.722Z,4.75
2023-01-17T06:34:40.667Z,3.70
2023-01-17T06:37:26.461Z,3.67
2023-01-17T06:40:48.226Z,6.60
2023-01-17T06:43:34.985Z,4.25
2023-01-17T06:46:20.957Z,4.10
2023-01-17T06:53:31.351Z,4.57
2023-01-17T06:56:17.045Z,4.43
2023-01-17T06:59:19.371Z,5.22
2023-01-17T07:02:04.926Z,4.53
2023-01-17T07:04:50.778Z,4.55
2023-01-17T07:07:36.756Z,4.93
2023-01-17T07:10:23.714Z,4.45
2023-01-17T07:13:09.576Z,4.85
2023-01-17T07:15:55.548Z,8.00
2023-01-17T07:18:41.154Z,46.00
2023-01-17T07:21:27.051Z,14.63
2023-01-17T07:24:27.066Z,14.40
2023-01-17T07:27:12.555Z,16.02
2023-01-17T07:29:58.354Z,23.27
2023-01-17T07:32:44.319Z,21.48
2023-01-17T07:35:30.230Z,9.77
2023-01-17T07:38:18.285Z,8.23
2023-01-17T07:41:03.964Z,7.90
2023-01-17T07:43:49.810Z,6.90
2023-01-17T07:46:40.817Z,17.27
2023-01-17T07:49:26.878Z,5.63
2023-01-17T07:52:13.230Z,5.40
2023-01-17T07:55:01.209Z,6.15
2023-01-17T07:57:50.339Z,4.32
2023-01-17T08:00:36.427Z,5.75
2023-01-17T08:03:22.120Z,6.65
2023-01-17T08:06:47.460Z,6.93
2023-01-17T08:09:33.248Z,8.68
2023-01-17T08:12:31.235Z,13.30
2023-01-17T08:15:23.852Z,14.00
2023-01-17T08:18:09.953Z,9.63
2023-01-17T08:20:55.848Z,11.05
2023-01-17T08:23:41.594Z,10.00
2023-01-17T08:26:27.502Z,10.05
2023-01-17T08:29:13.490Z,8.38
2023-01-17T08:31:59.178Z,8.32
2023-01-17T08:34:44.775Z,5.95
2023-01-17T08:37:30.424Z,6.82
2023-01-17T08:40:19.858Z,7.72
2023-01-17T08:43:05.907Z,7.00
2023-01-17T08:45:55.939Z,10.80
2023-01-17T08:48:41.774Z,13.30
2023-01-17T08:51:27.882Z,8.63
2023-01-17T08:54:15.299Z,7.97
2023-01-17T08:57:03.425Z,7.88
2023-01-17T08:59:49.277Z,8.45
2023-01-17T09:02:34.868Z,4.63
2023-01-17T09:05:20.924Z,4.88
2023-01-17T09:08:06.511Z,5.68
2023-01-17T09:10:52.314Z,5.50
2023-01-17T09:13:38.470Z,8.57
2023-01-17T09:16:24.489Z,6.68
2023-01-17T09:19:10.550Z,7.15
2023-01-17T09:21:56.269Z,11.63
2023-01-17T09:24:42.224Z,11.00
2023-01-17T09:27:28.018Z,10.93
2023-01-17T09:30:14.219Z,10.50
2023-01-17T09:32:59.925Z,6.45
2023-01-17T09:35:46.491Z,7.78
2023-01-17T09:38:33.531Z,7.00
2023-01-17T09:41:23.274Z,6.85
2023-01-17T09:44:40.507Z,6.93
2023-01-17T09:47:41.565Z,7.75
2023-01-17T09:50:33.645Z,5.90
2023-01-17T09:53:22.611Z,7.90
2023-01-17T09:56:15.196Z,11.20
2023-01-17T09:59:20.656Z,10.70
2023-01-17T10:02:34.307Z,9.70
2023-01-17T10:05:35.994Z,11.93
2023-01-17T10:08:30.931Z,10.93
2023-01-17T10:11:31.730Z,6.68
2023-01-17T10:14:51.581Z,7.78
2023-01-17T10:17:53.877Z,4.20
2023-01-17T10:20:46.958Z,9.07
2023-01-17T10:24:13.773Z,6.10
2023-01-17T10:27:00.755Z,7.00
2023-01-17T10:29:47.992Z,6.82
2023-01-17T10:32:35.437Z,8.25
2023-01-17T10:35:28.549Z,6.70
2023-01-17T10:38:18.525Z,4.97
2023-01-17T10:41:14.263Z,6.82
2023-01-17T10:44:36.442Z,8.02
2023-01-17T10:47:24.477Z,5.53
2023-01-17T10:50:13.242Z,5.47
2023-01-17T10:53:12.053Z,5.88
2023-01-17T10:55:58.077Z,6.97
2023-01-17T10:58:43.979Z,7.25
2023-01-17T11:01:30.152Z,9.52
2023-01-17T11:04:36.796Z,7.32
2023-01-17T11:07:28.259Z,5.97
2023-01-17T11:10:40.123Z,6.70
2023-01-17T11:13:30.390Z,11.52
2023-01-17T11:16:27.361Z,8.07
2023-01-17T11:19:26.011Z,10.27
2023-01-17T11:22:14.293Z,7.95
2023-01-17T11:25:02.606Z,6.85
2023-01-17T11:28:00.660Z,5.72
2023-01-17T11:30:55.655Z,5.93
2023-01-17T11:33:47.931Z,4.30
2023-01-17T11:36:35.722Z,4.80
2023-01-17T11:39:25.975Z,4.80
2023-01-17T11:42:34.758Z,4.82
2023-01-17T11:45:29.303Z,6.00
2023-01-17T11:48:17.792Z,3.83
2023-01-17T11:51:39.188Z,4.10
2023-01-17T11:54:42.168Z,3.88
2023-01-17T11:57:33.472Z,5.45
2023-01-17T12:00:41.043Z,4.55
2023-01-17T12:03:54.467Z,5.63
2023-01-17T12:07:03.071Z,3.87
2023-01-17T12:09:48.752Z,4.05
2023-01-17T12:13:29.123Z,4.97
2023-01-17T12:16:53.569Z,5.10
2023-01-17T12:20:01.188Z,6.18
2023-01-17T12:23:35.335Z,7.15
2023-01-17T12:26:50.715Z,9.53
2023-01-17T12:29:39.403Z,11.13
2023-01-17T12:32:43.489Z,8.00
2023-01-17T12:35:41.118Z,6.18
2023-01-17T12:38:33.553Z,6.95
2023-01-17T12:41:28.241Z,5.53
2023-01-17T12:44:16.361Z,9.93
2023-01-17T12:47:04.047Z,3.30
2023-01-17T12:50:04.927Z,3.42
2023-01-17T12:53:10.738Z,3.05
2023-01-17T12:56:14.772Z,3.03
2023-01-17T13:02:34.213Z,2.88
2023-01-17T13:05:23.736Z,3.20
2023-01-17T13:08:28.641Z,3.05
2023-01-17T13:11:30.309Z,2.95
2023-01-17T13:14:16.633Z,3.15
2023-01-17T13:17:27.182Z,3.95
2023-01-17T13:20:33.739Z,3.92
2023-01-17T13:23:48.792Z,3.05
2023-01-17T13:26:58.619Z,5.13
2023-01-17T13:30:04.082Z,2.78
2023-01-17T13:33:07.117Z,2.90
2023-01-17T13:36:08.507Z,3.03
2023-01-17T13:39:24.189Z,2.40
2023-01-17T13:47:11.409Z,2.50
2023-01-17T13:49:57.510Z,2.47
2023-01-17T13:52:43.262Z,7.15
2023-01-17T13:55:46.951Z,4.43
2023-01-17T13:58:50.222Z,4.45
2023-01-17T14:01:38.713Z,4.68
2023-01-17T14:04:25.256Z,3.50
2023-01-17T14:07:21.120Z,3.88
2023-01-17T14:10:43.160Z,3.85
2023-01-17T14:13:31.953Z,3.83
2023-01-17T14:16:22.949Z,3.58
2023-01-17T14:19:25.705Z,3.15
2023-01-17T14:22:20.953Z,10.80
2023-01-17T14:25:17.552Z,5.00
2023-01-17T14:28:08.323Z,5.10
2023-01-17T14:30:56.577Z,5.75
2023-01-17T14:33:43.095Z,5.60
2023-01-17T14:36:32.395Z,7.88
2023-01-17T14:39:23.289Z,5.03
2023-01-17T14:42:13.312Z,3.22
2023-01-17T14:45:04.217Z,5.03
2023-01-17T14:47:51.797Z,5.18
2023-01-17T14:50:42.566Z,6.78
2023-01-17T14:53:30.751Z,10.55
2023-01-17T14:56:17.957Z,9.20
2023-01-17T14:59:16.928Z,9.60
2023-01-17T15:02:08.759Z,7.65
2023-01-17T15:04:55.287Z,9.52
2023-01-17T15:07:43.606Z,9.40
2023-01-17T15:10:32.195Z,8.68
2023-01-17T15:13:27.796Z,9.85
2023-01-17T15:16:25.760Z,7.75
2023-01-17T15:19:13.884Z,7.00
2023-01-17T15:21:59.963Z,6.45
2023-01-17T15:24:46.988Z,5.60
2023-01-17T15:27:33.549Z,7.00
2023-01-17T15:30:19.660Z,5.05
2023-01-17T15:33:05.778Z,8.52
2023-01-17T15:36:00.182Z,8.05
2023-01-17T15:38:52.657Z,7.72
2023-01-17T15:41:39.719Z,7.80
2023-01-17T15:44:53.018Z,8.10
2023-01-17T15:47:39.423Z,5.35
2023-01-17T15:50:30.627Z,6.55
2023-01-17T15:53:37.147Z,7.45
2023-01-17T15:56:33.683Z,6.03
2023-01-17T15:59:45.556Z,7.20
2023-01-17T16:02:58.956Z,8.85
2023-01-17T16:05:46.181Z,6.57
2023-01-17T16:08:38.698Z,7.32
2023-01-17T16:11:24.727Z,7.20
2023-01-17T16:14:11.604Z,7.40
2023-01-17T16:17:01.644Z,12.88
2023-01-17T16:19:47.444Z,6.93
2023-01-17T16:22:34.223Z,7.22
2023-01-17T16:25:21.887Z,6.78
2023-01-17T16:28:07.513Z,4.38
2023-01-17T16:30:54.088Z,3.78
2023-01-17T16:33:42.428Z,4.07
2023-01-17T16:36:28.251Z,3.30
2023-01-17T16:39:15.246Z,4.13
2023-01-17T16:42:03.994Z,3.30
2023-01-17T16:44:49.880Z,3.70
2023-01-17T16:47:35.666Z,3.05
2023-01-17T16:50:23.794Z,3.58
2023-01-17T16:53:09.418Z,3.80
2023-01-17T16:55:58.232Z,3.30
2023-01-17T16:58:43.991Z,3.72
2023-01-17T17:01:30.112Z,3.10
2023-01-17T17:04:16.341Z,3.40
2023-01-17T17:07:02.364Z,3.00
2023-01-17T17:09:48.230Z,3.97
2023-01-17T17:12:34.629Z,3.00
2023-01-17T17:15:21.665Z,3.92
2023-01-17T17:18:15.197Z,3.20
2023-01-17T17:21:02.267Z,3.47
2023-01-17T17:23:51.008Z,5.53
2023-01-17T17:26:37.112Z,3.13
2023-01-17T17:29:22.868Z,3.30
2023-01-17T17:32:11.762Z,3.17
2023-01-17T17:34:57.971Z,3.53
2023-01-17T17:37:43.836Z,2.97
2023-01-17T17:40:29.935Z,2.90
2023-01-17T17:43:15.941Z,2.35
2023-01-17T17:46:01.529Z,3.55
2023-01-17T17:48:47.911Z,4.22
2023-01-17T17:51:36.379Z,3.03
2023-01-17T17:54:22.588Z,3.30
2023-01-17T17:57:09.633Z,2.60
2023-01-17T17:59:56.848Z,2.10
2023-01-17T18:02:42.486Z,16.05
2023-01-17T18:05:28.223Z,3.40
2023-01-17T18:08:14.060Z,4.35
2023-01-17T18:11:04.968Z,3.00
2023-01-17T18:13:52.060Z,3.80
2023-01-17T18:16:41.790Z,3.28
2023-01-17T18:19:27.689Z,3.42
2023-01-17T18:22:13.615Z,3.10
2023-01-17T18:24:59.571Z,3.42
2023-01-17T18:27:45.435Z,3.70
2023-01-17T18:30:37.140Z,3.97
2023-01-17T18:33:22.868Z,3.58
2023-01-17T18:36:10.913Z,3.70
2023-01-17T18:38:57.160Z,3.40
2023-01-17T18:41:43.041Z,3.30
2023-01-17T18:44:30.151Z,3.78
2023-01-17T18:47:15.892Z,4.00
2023-01-17T18:50:01.660Z,5.05
2023-01-17T18:52:47.473Z,5.03
2023-01-17T18:55:33.335Z,5.93
2023-01-17T18:58:21.072Z,6.78
2023-01-17T19:01:25.495Z,6.30
2023-01-17T19:04:14.474Z,5.78
2023-01-17T19:07:00.327Z,5.20
2023-01-17T19:09:46.016Z,4.20
2023-01-17T19:12:32.767Z,4.28
2023-01-17T19:15:18.419Z,3.70
2023-01-17T19:18:04.833Z,3.42
2023-01-17T19:20:50.711Z,4.53
2023-01-17T19:23:37.538Z,3.65
2023-01-17T19:26:25.175Z,2.90
2023-01-17T19:29:12.137Z,3.58
2023-01-17T19:31:58.250Z,3.65
2023-01-17T19:34:44.220Z,3.95
2023-01-17T19:37:30.039Z,3.67
2023-01-17T19:40:17.777Z,3.60
2023-01-17T19:43:04.765Z,3.10
2023-01-17T19:46:00.130Z,4.00
2023-01-17T19:48:46.097Z,3.50
2023-01-17T19:51:31.843Z,3.33
2023-01-17T19:54:18.102Z,3.53
2023-01-17T19:57:03.992Z,4.22
2023-01-17T19:59:50.374Z,4.28
2023-01-17T20:02:37.884Z,4.38
2023-01-17T20:05:24.135Z,5.00
2023-01-17T20:08:09.947Z,3.95
2023-01-17T20:11:01.649Z,4.13
2023-01-17T20:13:49.248Z,5.15
2023-01-17T20:16:36.435Z,6.00
2023-01-17T20:19:22.619Z,7.53
2023-01-17T20:22:08.717Z,5.88
2023-01-17T20:24:54.632Z,6.13
2023-01-17T20:27:44.461Z,6.07
2023-01-17T20:30:31.885Z,6.35
2023-01-17T20:33:18.790Z,6.07
2023-01-17T20:36:10.443Z,6.25
2023-01-17T20:39:12.313Z,5.32
2023-01-17T20:41:58.166Z,6.38
2023-01-17T20:44:44.706Z,6.47
2023-01-17T20:47:30.337Z,6.50
2023-01-17T20:50:16.686Z,6.32
2023-01-17T20:53:03.843Z,5.75
2023-01-17T20:55:56.068Z,5.93
2023-01-17T20:58:44.067Z,6.32
2023-01-17T21:06:25.045Z,6.90
2023-01-17T21:09:13.054Z,6.30
2023-01-17T21:12:06.177Z,7.03
2023-01-17T21:15:24.878Z,6.18
2023-01-17T21:18:10.644Z,6.10
2023-01-17T21:21:02.955Z,3.30
2023-01-17T21:25:25.417Z,3.13
2023-01-17T21:28:12.207Z,2.88
2023-01-17T21:30:58.040Z,2.22
2023-01-17T21:33:44.175Z,2.05
2023-01-17T21:36:35.371Z,2.45
2023-01-17T21:39:23.323Z,1.95
2023-01-17T21:42:10.808Z,1.90
2023-01-17T21:45:09.380Z,2.30
2023-01-17T21:48:40.684Z,2.50
2023-01-17T21:51:51.800Z,2.67
2023-01-17T21:55:10.219Z,3.05
2023-01-17T21:58:21.542Z,3.95
2023-01-17T22:01:09.063Z,3.08
2023-01-17T22:04:00.287Z,3.55
2023-01-17T22:06:46.611Z,3.20
2023-01-17T22:09:32.585Z,2.88
2023-01-17T22:12:18.649Z,2.78
2023-01-17T22:15:05.009Z,2.70
2023-01-17T22:17:50.920Z,2.90
2023-01-17T22:21:29.030Z,4.28
2023-01-17T22:24:17.003Z,5.32
2023-01-17T22:27:04.032Z,6.00
2023-01-17T22:29:49.921Z,5.25
2023-01-17T22:32:35.644Z,5.28
2023-01-17T22:35:21.552Z,5.70
2023-01-17T22:38:07.462Z,5.55
2023-01-17T22:40:53.151Z,5.50
2023-01-17T22:44:18.705Z,4.63
2023-01-17T22:47:04.600Z,3.67
2023-01-17T22:50:23.687Z,4.05
2023-01-17T22:53:10.465Z,4.80
2023-01-17T22:56:09.745Z,4.28
2023-01-17T22:58:55.912Z,4.45
2023-01-17T23:01:41.695Z,3.30
2023-01-17T23:04:28.570Z,4.20
2023-01-17T23:07:15.722Z,4.10
2023-01-17T23:11:09.375Z,4.40
2023-01-17T23:15:31.482Z,3.40
2023-01-17T23:18:49.450Z,2.95
2023-01-17T23:21:55.847Z,3.05
2023-01-17T23:25:30.700Z,3.70
2023-01-17T23:31:13.187Z,3.65
2023-01-17T23:38:37.958Z,2.25
2023-01-17T23:45:18.119Z,1.70
2023-01-17T23:48:05.704Z,1.90
2023-01-17T23:50:51.988Z,2.38
2023-01-17T23:54:21.743Z,1.77
2023-01-17T23:57:07.847Z,2.00
2023-01-17T23:59:53.607Z,2.28
